Portada
METAR-TAF:

METAR-TAF

Aeroports :

Mahshahr, Iran

latitud: 30-33-23N, longitud: 049-09-07E, altitud: 2 m

Observació

L'informe es va fer fa 1 hora i 10 minuts, a les 05:00 UTC
Vent 6 kt del Est/Nord-Est
Temperatura 25°C
Humitat 47%
Pressió 1012 hPa
Visibilitat 10 km o més
sense núvols per sota de 1500 mi sense presència de cumulonimbus.

METAR: OIAM 070500Z 06006KT CAVOK 25/13 Q1012

Hora: 10:40 (06:10 UTC)


TAF: manca

Observacions i pronòstics meteorològics de més de 4000 aeroports (METAR i TAF).

Les estacions disponibles són els punts grocs i vermells al mapa.

Posi el ratolí al punt desitjat per veure el nom de l'estació.

Feu clic per veure les observacions i els pronòstics meteorològics.

Per canviar el mapa: feu clic els botons verds amb una creu de color negre per apropar; al botó verd amb un guió per allunyar la imatge; o en les fletxes verdes per a mapes adjacents.


METAR-TAF: